Terminal Aerodrome Forecast
Issued by NWS Melbourne, FL

Current Version | Previous Version | Text Only | Print | Product List | Glossary On
Versions: 1 2 3 4 5 6 7 8 9 10 11 12 13
000
FTUS42 KMLB 240500 RRA
TAFVRB
TAF
KVRB 240544Z 2406/2506 18003KT P6SM SCT050 SCT250
      TEMPO 2406/2408 OVC050
     FM240900 19004KT 6SM MIFG BKN005
      TEMPO 2413/2414 BKN008
     FM241400 18010KT P6SM SCT018
     FM241700 17011KT P6SM BKN035
     FM250100 18004KT P6SM SCT040 BKN250=

USA.gov is the U.S. government's official web portal to all federal, state and local government web resources and services.